Time;durP1;ratioP1;P1;durP2;ratioP2;P2;SDS_P1;SDS_P2;PMS_P1;PMS_P2;Temp;Humidity;BMP_temperature;BMP_pressure;BME280_temperature;BME280_humidity;BME280_pressure;Samples;Min_cycle;Max_cycle;Signal;HPM_P1;HPM_P2
2022/02/18 00:00:42;;;;;;;6.22;1.70;;;6.10;1.00;;;;;;6279776;22;20192;-82
2022/02/18 00:03:09;;;;;;;8.25;2.40;;;6.10;1.00;;;;;;6279677;22;20212;-82
2022/02/18 00:05:36;;;;;;;9.18;2.55;;;6.00;1.00;;;;;;6278011;22;20806;-79
2022/02/18 00:08:03;;;;;;;6.40;2.33;;;6.00;1.00;;;;;;6280476;22;20512;-81
2022/02/18 00:10:30;;;;;;;4.53;2.30;;;6.00;1.00;;;;;;6280448;22;20234;-81
2022/02/18 00:12:56;;;;;;;6.47;2.63;;;6.00;1.00;;;;;;6252393;22;20211;-81
2022/02/18 00:15:23;;;;;;;11.02;2.58;;;6.00;1.00;;;;;;6283679;22;20199;-80
2022/02/18 00:17:51;;;;;;;6.43;2.10;;;6.00;1.00;;;;;;6279899;22;20251;-81
2022/02/18 00:20:18;;;;;;;4.72;2.03;;;5.90;1.00;;;;;;6281782;22;20192;-81
2022/02/18 00:22:45;;;;;;;9.05;2.92;;;6.00;1.00;;;;;;6280694;22;20235;-82
2022/02/18 00:25:12;;;;;;;4.50;2.20;;;6.00;1.00;;;;;;6286508;22;20231;-80
2022/02/18 00:27:39;;;;;;;4.47;2.17;;;6.00;1.00;;;;;;6286592;22;20219;-81
2022/02/18 00:30:09;;;;;;;9.38;2.63;;;6.00;1.00;;;;;;6282152;22;20197;-82
2022/02/18 00:32:37;;;;;;;5.93;2.30;;;6.00;1.00;;;;;;6282160;22;20224;-82
2022/02/18 00:35:05;;;;;;;5.97;1.85;;;6.00;1.00;;;;;;6282132;22;20250;-81
2022/02/18 00:37:34;;;;;;;4.57;1.73;;;6.00;1.00;;;;;;6255462;22;20200;-81
2022/02/18 00:40:00;;;;;;;8.25;2.20;;;6.00;1.00;;;;;;6281822;22;20199;-80
2022/02/18 00:42:27;;;;;;;5.82;2.20;;;6.00;1.00;;;;;;6253497;22;20234;-81
2022/02/18 00:44:55;;;;;;;7.05;2.28;;;6.00;1.00;;;;;;6281345;22;20204;-81
2022/02/18 00:47:22;;;;;;;3.67;2.00;;;6.00;1.00;;;;;;6281627;22;20705;-80
2022/02/18 00:49:49;;;;;;;6.65;2.00;;;5.90;1.00;;;;;;6279144;22;20223;-81
2022/02/18 00:52:17;;;;;;;7.32;2.30;;;6.00;1.00;;;;;;6279003;22;20240;-81
2022/02/18 00:54:44;;;;;;;6.97;1.90;;;6.00;1.00;;;;;;6278556;22;20189;-82
2022/02/18 00:57:11;;;;;;;11.30;2.80;;;6.00;1.00;;;;;;6279335;22;20275;-80
2022/02/18 00:59:37;;;;;;;3.42;2.08;;;6.00;1.00;;;;;;6279991;22;20192;-81
2022/02/18 01:02:04;;;;;;;10.52;2.33;;;6.00;1.00;;;;;;6290367;22;20664;-80
2022/02/18 01:04:31;;;;;;;5.57;2.00;;;5.90;1.00;;;;;;6290372;22;20204;-80
2022/02/18 01:06:58;;;;;;;6.50;1.98;;;5.90;1.00;;;;;;6295778;22;20560;-80
2022/02/18 01:09:26;;;;;;;4.90;2.20;;;5.90;1.00;;;;;;6292391;22;20545;-79
2022/02/18 01:11:53;;;;;;;7.60;2.00;;;5.90;1.00;;;;;;6286481;22;20219;-80
2022/02/18 01:14:20;;;;;;;5.88;2.40;;;5.90;1.00;;;;;;6289448;22;20204;-80
2022/02/18 01:16:46;;;;;;;5.47;1.88;;;5.90;1.00;;;;;;6284846;22;20212;-81
2022/02/18 01:19:13;;;;;;;4.20;1.85;;;5.80;1.00;;;;;;6280259;22;20270;-80
2022/02/18 01:21:39;;;;;;;5.55;2.00;;;5.80;1.00;;;;;;6279445;22;20188;-81
2022/02/18 01:24:06;;;;;;;8.35;1.92;;;5.80;1.00;;;;;;6250144;22;20208;-80
2022/02/18 01:26:35;;;;;;;8.38;2.13;;;5.80;1.00;;;;;;6279176;22;20207;-82
2022/02/18 01:29:03;;;;;;;8.98;2.28;;;5.80;1.00;;;;;;6281739;22;20272;-82
2022/02/18 01:31:30;;;;;;;6.75;1.98;;;5.80;1.00;;;;;;6280736;22;20203;-81
2022/02/18 01:33:57;;;;;;;4.75;1.83;;;5.80;1.00;;;;;;6287703;22;20181;-81
2022/02/18 01:36:25;;;;;;;9.02;1.85;;;5.80;1.00;;;;;;6266367;22;20208;-81
2022/02/18 01:38:51;;;;;;;6.07;2.03;;;5.80;1.00;;;;;;6274196;22;20188;-81
2022/02/18 01:41:18;;;;;;;6.55;2.00;;;5.80;1.00;;;;;;6275511;22;20208;-80
2022/02/18 01:43:55;;;;;;;6.70;2.30;;;5.80;1.00;;;;;;6275464;22;20258;-81
2022/02/18 01:46:23;;;;;;;4.97;1.80;;;5.80;1.00;;;;;;6274842;22;21266;-82
2022/02/18 01:48:50;;;;;;;5.43;1.70;;;5.70;1.00;;;;;;6278013;22;20192;-80
2022/02/18 01:51:19;;;;;;;6.75;2.20;;;5.70;1.00;;;;;;6278003;22;20301;-80
2022/02/18 01:53:47;;;;;;;8.48;2.50;;;5.70;1.00;;;;;;6255785;22;20216;-81
2022/02/18 01:56:14;;;;;;;5.40;2.13;;;5.70;1.00;;;;;;6278113;22;20201;-79
2022/02/18 01:58:41;;;;;;;5.47;2.30;;;5.80;1.00;;;;;;6276653;22;21133;-80
2022/02/18 02:01:10;;;;;;;4.47;1.70;;;5.70;1.00;;;;;;6278374;22;21082;-82
2022/02/18 02:03:37;;;;;;;6.22;1.90;;;5.80;1.00;;;;;;6273785;22;20188;-81
2022/02/18 02:06:05;;;;;;;4.22;1.75;;;5.80;1.00;;;;;;6274893;22;20216;-81
2022/02/18 02:08:36;;;;;;;5.65;1.98;;;5.80;1.00;;;;;;6274167;22;20366;-80
2022/02/18 02:11:03;;;;;;;7.88;1.88;;;5.80;1.00;;;;;;6275350;22;20212;-81
2022/02/18 02:13:32;;;;;;;6.32;1.90;;;5.70;1.00;;;;;;6271944;22;20184;-81
2022/02/18 02:15:59;;;;;;;7.20;2.10;;;5.70;1.00;;;;;;6271761;22;20196;-80
2022/02/18 02:18:27;;;;;;;7.90;2.22;;;5.70;1.00;;;;;;6274325;22;20192;-82
2022/02/18 02:20:54;;;;;;;6.50;1.70;;;5.70;1.00;;;;;;6270862;22;20191;-82
2022/02/18 02:23:23;;;;;;;4.85;1.48;;;5.70;1.00;;;;;;6272399;22;20252;-81
2022/02/18 02:25:50;;;;;;;5.93;2.22;;;5.60;1.00;;;;;;6271086;22;20240;-81
2022/02/18 02:28:17;;;;;;;6.47;2.20;;;5.60;1.00;;;;;;6271993;22;20188;-80
2022/02/18 02:30:45;;;;;;;12.35;2.80;;;5.60;1.00;;;;;;6273291;22;20188;-81
2022/02/18 02:33:12;;;;;;;9.77;2.25;;;5.60;1.00;;;;;;6273136;22;20188;-81
2022/02/18 02:35:38;;;;;;;5.45;1.95;;;5.60;1.00;;;;;;6284388;22;20275;-80
2022/02/18 02:38:06;;;;;;;5.95;1.98;;;5.60;1.00;;;;;;6280918;22;20248;-81
2022/02/18 02:40:34;;;;;;;5.47;1.65;;;5.60;1.00;;;;;;6271957;22;20204;-81
2022/02/18 02:43:01;;;;;;;6.57;2.40;;;5.50;1.00;;;;;;6274209;22;20259;-80
2022/02/18 02:45:28;;;;;;;5.45;2.38;;;5.50;1.00;;;;;;6274535;22;20235;-81
2022/02/18 02:47:55;;;;;;;8.35;1.95;;;5.50;1.00;;;;;;6274190;22;21057;-81
2022/02/18 02:50:22;;;;;;;7.68;1.80;;;5.50;1.00;;;;;;6244506;22;20667;-81
2022/02/18 02:52:49;;;;;;;5.65;1.95;;;5.50;1.00;;;;;;6273939;22;20215;-81
2022/02/18 02:55:15;;;;;;;5.50;1.73;;;5.50;1.00;;;;;;6272316;22;20250;-80
2022/02/18 02:57:44;;;;;;;7.72;1.90;;;5.50;1.00;;;;;;6269568;22;20323;-80
2022/02/18 03:00:13;;;;;;;5.03;1.80;;;5.50;1.00;;;;;;6275587;22;20287;-80
2022/02/18 03:02:41;;;;;;;9.25;2.30;;;5.40;1.00;;;;;;6278662;22;20191;-81
2022/02/18 03:05:08;;;;;;;8.23;2.08;;;5.40;1.00;;;;;;6273830;22;20245;-82
2022/02/18 03:07:35;;;;;;;6.93;2.40;;;5.40;1.00;;;;;;6275903;22;21050;-82
2022/02/18 03:10:03;;;;;;;6.10;2.42;;;5.40;1.00;;;;;;6281460;22;20194;-82
2022/02/18 03:12:30;;;;;;;3.95;1.77;;;5.40;1.00;;;;;;6281026;22;20195;-81
2022/02/18 03:14:58;;;;;;;7.05;1.92;;;5.40;1.00;;;;;;6277885;22;20207;-81
2022/02/18 03:17:25;;;;;;;6.20;1.98;;;5.40;1.00;;;;;;6279789;22;20192;-82
2022/02/18 03:19:52;;;;;;;6.32;1.80;;;5.30;1.00;;;;;;6279593;22;20198;-82
2022/02/18 03:22:19;;;;;;;6.65;1.55;;;5.30;1.00;;;;;;6274302;22;20192;-81
2022/02/18 03:24:46;;;;;;;7.50;2.10;;;5.30;1.00;;;;;;6273775;22;20211;-81
2022/02/18 03:27:13;;;;;;;8.82;2.53;;;5.30;1.00;;;;;;6273853;22;20208;-81
2022/02/18 03:29:39;;;;;;;6.75;2.55;;;5.30;1.00;;;;;;6274511;22;20660;-80
2022/02/18 03:32:08;;;;;;;6.88;1.77;;;5.30;1.00;;;;;;6274710;22;20196;-80
2022/02/18 03:34:36;;;;;;;4.70;1.67;;;5.20;1.00;;;;;;6282385;22;20220;-81
2022/02/18 03:37:03;;;;;;;6.75;2.25;;;5.30;1.00;;;;;;6284800;22;20199;-82
2022/02/18 03:39:30;;;;;;;11.88;4.85;;;5.30;1.00;;;;;;6274132;22;20296;-82
2022/02/18 03:41:57;;;;;;;5.80;2.00;;;5.30;1.00;;;;;;6271661;22;20192;-82
2022/02/18 03:44:23;;;;;;;7.68;2.05;;;5.20;1.00;;;;;;6269491;22;20226;-82
2022/02/18 03:46:50;;;;;;;11.00;2.38;;;5.20;1.00;;;;;;6271916;22;20212;-81
2022/02/18 03:49:18;;;;;;;9.05;2.30;;;5.20;1.00;;;;;;6275607;22;20212;-81
2022/02/18 03:51:45;;;;;;;6.10;2.70;;;5.20;1.00;;;;;;6273855;22;20187;-81
2022/02/18 03:54:13;;;;;;;4.68;1.85;;;5.20;1.00;;;;;;6245687;22;20208;-81
2022/02/18 03:56:40;;;;;;;9.30;2.00;;;5.20;1.00;;;;;;6274039;22;20199;-81
2022/02/18 03:59:07;;;;;;;6.82;2.20;;;5.20;1.00;;;;;;6274667;22;20196;-81
2022/02/18 04:01:33;;;;;;;7.25;2.20;;;5.20;1.00;;;;;;6272915;22;20621;-81
2022/02/18 04:04:00;;;;;;;10.25;2.78;;;5.20;1.00;;;;;;6273880;22;20203;-81
2022/02/18 04:06:28;;;;;;;5.53;2.30;;;5.20;1.00;;;;;;6270220;22;20200;-81
2022/02/18 04:08:54;;;;;;;6.07;2.40;;;5.10;1.00;;;;;;6281368;22;20176;-80
2022/02/18 04:11:21;;;;;;;6.82;2.67;;;5.10;1.00;;;;;;6289652;22;20202;-80
2022/02/18 04:13:48;;;;;;;7.68;1.65;;;5.20;1.00;;;;;;6274555;22;20203;-82
2022/02/18 04:16:14;;;;;;;5.70;2.47;;;5.10;1.00;;;;;;6274576;22;20214;-80
2022/02/18 04:18:41;;;;;;;7.55;3.00;;;5.10;1.00;;;;;;6246360;22;20188;-80
2022/02/18 04:21:07;;;;;;;8.75;2.10;;;5.10;1.00;;;;;;6273538;22;20582;-79
2022/02/18 04:23:35;;;;;;;5.20;2.55;;;5.10;1.00;;;;;;6248450;22;20184;-80
2022/02/18 04:26:03;;;;;;;4.82;2.33;;;5.00;1.00;;;;;;6276085;22;20208;-80
2022/02/18 04:28:29;;;;;;;7.40;1.88;;;5.10;1.00;;;;;;6277819;22;20188;-81
2022/02/18 04:30:56;;;;;;;5.60;2.08;;;5.10;1.00;;;;;;6295651;22;20249;-80
2022/02/18 04:33:22;;;;;;;9.93;2.83;;;5.10;1.00;;;;;;6283949;22;20188;-81
2022/02/18 04:35:49;;;;;;;7.03;2.47;;;5.10;1.00;;;;;;6247177;22;20219;-81
2022/02/18 04:38:16;;;;;;;5.28;2.55;;;5.00;1.00;;;;;;6272925;22;20267;-80
2022/02/18 04:40:44;;;;;;;7.53;2.42;;;5.00;1.00;;;;;;6270614;22;20200;-81
2022/02/18 04:43:11;;;;;;;8.07;2.15;;;5.00;1.00;;;;;;6271987;22;20196;-80
2022/02/18 04:45:37;;;;;;;7.82;2.65;;;5.00;1.00;;;;;;6265848;22;20203;-81
2022/02/18 04:48:05;;;;;;;7.07;2.85;;;4.90;1.00;;;;;;6270537;22;20289;-81
2022/02/18 04:50:31;;;;;;;8.57;2.50;;;4.90;1.00;;;;;;6269461;22;20250;-81
2022/02/18 04:52:58;;;;;;;4.50;2.13;;;4.90;1.00;;;;;;6269727;22;21052;-80
2022/02/18 04:55:24;;;;;;;7.00;2.50;;;4.90;1.00;;;;;;6268748;22;20196;-80
2022/02/18 04:57:52;;;;;;;6.18;2.90;;;4.90;1.00;;;;;;6271383;22;20192;-81
2022/02/18 05:00:20;;;;;;;5.78;2.00;;;4.90;1.00;;;;;;6272915;22;20184;-80
2022/02/18 05:02:49;;;;;;;7.18;2.90;;;4.80;1.00;;;;;;6264311;22;20796;-81
2022/02/18 05:05:16;;;;;;;4.95;2.30;;;4.80;1.00;;;;;;6271134;22;20380;-80
2022/02/18 05:07:43;;;;;;;6.50;1.90;;;4.80;1.00;;;;;;6272038;22;20196;-80
2022/02/18 05:10:10;;;;;;;8.05;2.70;;;4.80;1.00;;;;;;6271796;22;20218;-82
2022/02/18 05:12:37;;;;;;;4.07;2.08;;;4.80;1.00;;;;;;6271403;22;20251;-80
2022/02/18 05:15:06;;;;;;;6.53;4.30;;;4.80;1.00;;;;;;6271699;22;20184;-81
2022/02/18 05:17:33;;;;;;;7.47;2.85;;;4.80;1.00;;;;;;6271994;22;20192;-81
2022/02/18 05:19:59;;;;;;;7.82;2.38;;;4.80;1.00;;;;;;6272740;22;20279;-82
2022/02/18 05:22:27;;;;;;;9.07;3.08;;;4.80;1.00;;;;;;6273875;22;20212;-81
2022/02/18 05:24:53;;;;;;;5.07;2.40;;;4.80;1.00;;;;;;6276229;22;20192;-81
2022/02/18 05:27:20;;;;;;;8.50;2.88;;;4.70;1.00;;;;;;6281681;22;20943;-80
2022/02/18 05:29:47;;;;;;;5.25;2.40;;;4.80;1.00;;;;;;6280594;22;20251;-81
2022/02/18 05:32:14;;;;;;;7.45;2.50;;;4.70;1.00;;;;;;6281995;22;21083;-82
2022/02/18 05:34:41;;;;;;;4.88;2.47;;;4.70;1.00;;;;;;6277291;22;20213;-85
2022/02/18 05:37:09;;;;;;;6.13;2.60;;;4.70;1.00;;;;;;6278244;22;20207;-84
2022/02/18 05:39:35;;;;;;;6.80;3.38;;;4.80;1.00;;;;;;6279269;22;20184;-82
2022/02/18 05:42:03;;;;;;;9.65;2.95;;;4.80;1.00;;;;;;6284591;22;20254;-82
2022/02/18 05:44:31;;;;;;;4.90;2.60;;;4.70;1.00;;;;;;6295317;22;20185;-82
2022/02/18 05:46:58;;;;;;;10.38;3.20;;;4.70;1.00;;;;;;6282041;22;20599;-82
2022/02/18 05:49:27;;;;;;;5.80;2.55;;;4.70;1.00;;;;;;6281660;22;20195;-82
2022/02/18 05:51:53;;;;;;;9.23;3.22;;;4.70;1.00;;;;;;6277542;22;20201;-83
2022/02/18 05:54:20;;;;;;;7.95;3.22;;;4.70;1.00;;;;;;6276225;22;20190;-88
2022/02/18 05:56:48;;;;;;;9.02;2.50;;;4.70;1.00;;;;;;6280964;22;21065;-86
2022/02/18 05:59:14;;;;;;;8.65;3.40;;;4.60;1.00;;;;;;6256808;22;20267;-85
2022/02/18 06:01:44;;;;;;;7.00;3.55;;;4.70;1.00;;;;;;6255606;22;20180;-85
2022/02/18 06:04:11;;;;;;;10.93;3.45;;;4.70;1.00;;;;;;6290672;22;20201;-85
2022/02/18 06:06:40;;;;;;;5.55;2.70;;;4.70;1.00;;;;;;6299021;22;20219;-86
2022/02/18 06:09:07;;;;;;;7.72;3.20;;;4.70;1.00;;;;;;6299961;22;20195;-86
2022/02/18 06:11:34;;;;;;;6.18;3.33;;;4.70;1.00;;;;;;6284798;22;20192;-84
2022/02/18 06:14:01;;;;;;;9.70;2.60;;;4.70;1.00;;;;;;6282670;22;20218;-86
2022/02/18 06:16:28;;;;;;;9.48;3.38;;;4.70;1.00;;;;;;6286262;22;20198;-85
2022/02/18 06:18:55;;;;;;;6.20;2.72;;;4.70;1.00;;;;;;6260660;22;20794;-86
2022/02/18 06:21:22;;;;;;;11.02;3.92;;;4.80;1.00;;;;;;6262568;22;20195;-85
2022/02/18 06:23:51;;;;;;;10.82;4.40;;;4.70;1.00;;;;;;6257922;22;20717;-87
2022/02/18 06:26:23;;;;;;;6.97;3.80;;;4.70;1.00;;;;;;6258024;22;20215;-90
2022/02/18 06:28:55;;;;;;;6.72;3.10;;;4.70;1.00;;;;;;6287341;22;20176;-85
2022/02/18 06:31:22;;;;;;;10.30;3.90;;;4.70;1.00;;;;;;6282330;22;20198;-87
2022/02/18 06:33:55;;;;;;;11.00;3.35;;;4.80;1.00;;;;;;6285481;22;20185;-87
2022/02/18 06:36:24;;;;;;;9.52;4.07;;;4.80;1.00;;;;;;6284019;22;20278;-85
2022/02/18 06:39:11;;;;;;;9.18;3.17;;;4.80;1.00;;;;;;6258037;22;20192;-86
2022/02/18 06:42:11;;;;;;;10.70;3.67;;;4.90;1.00;;;;;;6256228;22;20288;-87
2022/02/18 06:44:57;;;;;;;7.57;3.58;;;4.90;1.00;;;;;;6254995;22;20192;-86
2022/02/18 06:47:42;;;;;;;7.70;4.13;;;4.90;1.00;;;;;;6277441;22;20212;-85
2022/02/18 06:50:13;;;;;;;10.73;4.15;;;4.90;1.00;;;;;;6254348;22;20258;-85
2022/02/18 06:52:40;;;;;;;6.97;3.30;;;4.90;1.00;;;;;;6280158;22;20641;-84
2022/02/18 06:55:09;;;;;;;9.75;3.85;;;4.90;1.00;;;;;;6279648;22;20273;-82
2022/02/18 06:57:40;;;;;;;9.85;4.57;;;5.00;1.00;;;;;;6279616;22;20188;-85
2022/02/18 07:00:08;;;;;;;13.18;4.78;;;5.00;1.00;;;;;;6281071;22;20303;-85
2022/02/18 07:02:44;;;;;;;11.55;4.47;;;4.90;1.00;;;;;;6257685;22;20233;-86
2022/02/18 07:08:27;;;;;;;10.85;4.47;;;4.90;1.00;;;;;;6281477;22;20294;-85
2022/02/18 07:10:55;;;;;;;6.70;4.45;;;5.00;1.00;;;;;;6282828;22;20198;-86
2022/02/18 07:13:22;;;;;;;7.07;4.22;;;5.00;1.00;;;;;;6287499;22;20210;-86
2022/02/18 07:15:49;;;;;;;11.75;4.35;;;5.10;1.00;;;;;;6260625;22;20196;-85
2022/02/18 07:18:17;;;;;;;9.95;4.20;;;5.20;1.00;;;;;;6305479;22;20244;-85
2022/02/18 07:20:44;;;;;;;8.48;4.40;;;5.30;1.00;;;;;;6262331;22;21466;-86
2022/02/18 07:23:11;;;;;;;11.98;5.82;;;5.30;1.00;;;;;;6294638;22;20196;-85
2022/02/18 07:25:40;;;;;;;11.57;5.93;;;5.50;1.00;;;;;;6272739;22;20192;-86
2022/02/18 07:28:08;;;;;;;10.30;4.80;;;5.50;1.00;;;;;;6288903;22;20196;-85
2022/02/18 07:30:35;;;;;;;8.35;4.60;;;5.60;1.00;;;;;;6285755;22;20199;-85
2022/02/18 07:33:02;;;;;;;12.55;8.23;;;5.70;1.00;;;;;;6290393;22;20188;-85
2022/02/18 07:35:32;;;;;;;23.42;8.13;;;5.60;1.00;;;;;;6287871;22;21424;-86
2022/02/18 07:38:01;;;;;;;10.65;5.72;;;5.60;1.00;;;;;;6289693;22;20183;-86
2022/02/18 07:40:29;;;;;;;6.50;5.15;;;5.70;1.00;;;;;;6258749;22;20322;-86
2022/02/18 07:42:57;;;;;;;13.63;5.63;;;5.70;1.00;;;;;;6291650;22;20193;-85
2022/02/18 07:45:25;;;;;;;10.57;6.22;;;5.80;1.00;;;;;;6297124;22;20200;-85
2022/02/18 07:47:55;;;;;;;8.60;6.03;;;6.00;1.00;;;;;;6294985;22;20203;-84
2022/02/18 07:50:23;;;;;;;8.55;6.10;;;6.10;1.00;;;;;;6288545;22;20247;-85
2022/02/18 07:52:51;;;;;;;8.45;6.38;;;6.20;1.00;;;;;;6289869;22;20240;-86
2022/02/18 07:55:17;;;;;;;10.85;6.70;;;6.30;1.00;;;;;;6289302;22;20199;-84
2022/02/18 07:57:45;;;;;;;14.82;6.40;;;6.40;1.00;;;;;;6255988;22;20195;-85
2022/02/18 08:00:13;;;;;;;13.20;7.75;;;6.50;1.00;;;;;;6287163;22;20275;-84
2022/02/18 08:02:42;;;;;;;17.65;7.22;;;6.60;1.00;;;;;;6257669;22;20193;-88
2022/02/18 08:05:10;;;;;;;10.90;6.70;;;6.70;1.00;;;;;;6290954;22;20192;-87
2022/02/18 08:07:37;;;;;;;13.77;5.88;;;6.80;1.00;;;;;;6261685;22;20228;-86
2022/02/18 08:10:05;;;;;;;12.23;5.95;;;6.90;1.00;;;;;;6291933;22;20192;-86
2022/02/18 08:12:32;;;;;;;8.60;6.28;;;6.90;1.00;;;;;;6293228;22;20196;-79
2022/02/18 08:14:59;;;;;;;11.20;6.25;;;7.00;1.00;;;;;;6285378;22;21126;-87
2022/02/18 08:17:25;;;;;;;13.68;6.93;;;7.00;1.00;;;;;;6283880;22;20192;-86
2022/02/18 08:19:58;;;;;;;13.40;5.82;;;7.20;1.00;;;;;;6289072;22;20188;-87
2022/02/18 08:22:27;;;;;;;10.20;5.88;;;7.30;1.00;;;;;;6291265;22;20213;-88
2022/02/18 08:24:53;;;;;;;9.18;5.90;;;7.40;1.00;;;;;;6256756;22;20649;-87
2022/02/18 08:27:20;;;;;;;9.52;6.57;;;7.40;1.00;;;;;;6255732;22;20204;-86
2022/02/18 08:29:47;;;;;;;8.65;6.30;;;7.50;1.00;;;;;;6283468;22;20200;-85
2022/02/18 08:32:14;;;;;;;16.58;7.72;;;7.50;1.00;;;;;;6259233;22;20200;-87
2022/02/18 08:34:41;;;;;;;9.57;6.72;;;7.60;1.00;;;;;;6256269;22;21619;-87
2022/02/18 08:37:09;;;;;;;8.88;6.72;;;7.60;1.00;;;;;;6286660;22;20243;-88
2022/02/18 08:39:36;;;;;;;12.27;6.03;;;7.50;1.00;;;;;;6287127;22;20894;-86
2022/02/18 08:42:03;;;;;;;11.52;6.40;;;7.60;1.00;;;;;;6286450;22;20181;-86
2022/02/18 08:44:31;;;;;;;8.77;5.30;;;7.70;1.00;;;;;;6283415;22;20185;-85
2022/02/18 08:46:58;;;;;;;9.82;5.95;;;7.80;1.00;;;;;;6257696;22;20208;-85
2022/02/18 08:49:24;;;;;;;9.45;6.22;;;8.00;1.00;;;;;;6290215;22;20731;-85
2022/02/18 08:51:51;;;;;;;9.43;5.47;;;8.20;1.00;;;;;;6275314;22;20192;-87
2022/02/18 08:54:20;;;;;;;11.13;5.80;;;8.50;1.00;;;;;;6290550;22;20188;-84
2022/02/18 08:56:46;;;;;;;11.05;5.90;;;8.80;1.00;;;;;;6280659;22;20260;-86
2022/02/18 08:59:13;;;;;;;11.23;5.82;;;8.90;1.00;;;;;;6289531;22;20192;-87
2022/02/18 09:01:41;;;;;;;11.20;5.07;;;9.20;1.00;;;;;;6284247;22;20177;-87
2022/02/18 09:04:09;;;;;;;11.37;5.60;;;9.50;1.00;;;;;;6285880;22;20273;-87
2022/02/18 09:06:36;;;;;;;8.37;4.87;;;9.70;1.00;;;;;;6286845;22;20981;-87
2022/02/18 09:09:02;;;;;;;9.73;5.10;;;9.80;1.00;;;;;;6285354;22;20432;-86
2022/02/18 09:11:30;;;;;;;8.73;5.87;;;9.80;1.00;;;;;;6283177;22;20420;-86
2022/02/18 09:13:57;;;;;;;11.02;5.50;;;9.60;1.00;;;;;;6285449;22;20476;-84
2022/02/18 09:16:24;;;;;;;6.70;4.43;;;9.30;1.00;;;;;;6287423;22;20246;-84
2022/02/18 09:18:51;;;;;;;7.55;5.40;;;9.30;1.00;;;;;;6285896;22;20937;-84
2022/02/18 09:21:18;;;;;;;9.07;6.80;;;9.30;1.00;;;;;;6284967;22;20188;-83
2022/02/18 09:23:45;;;;;;;10.30;6.60;;;9.30;1.00;;;;;;6288727;22;20446;-84
2022/02/18 09:26:12;;;;;;;11.27;6.50;;;9.40;1.00;;;;;;6290051;22;20839;-84
2022/02/18 09:28:40;;;;;;;9.93;6.63;;;9.40;1.00;;;;;;6286785;22;20189;-84
2022/02/18 09:31:06;;;;;;;8.80;5.55;;;9.40;1.00;;;;;;6284623;22;20194;-83
2022/02/18 09:33:34;;;;;;;9.52;6.13;;;9.40;1.00;;;;;;6280421;22;21348;-80
2022/02/18 09:36:01;;;;;;;10.27;6.72;;;9.50;1.00;;;;;;6275681;22;20203;-81
2022/02/18 09:38:28;;;;;;;9.13;6.50;;;9.70;1.00;;;;;;6275417;22;20199;-81
2022/02/18 09:40:55;;;;;;;7.90;5.90;;;9.60;1.00;;;;;;6274969;22;20522;-81
2022/02/18 09:43:23;;;;;;;9.10;6.38;;;9.50;1.00;;;;;;6258903;22;21032;-80
2022/02/18 09:45:51;;;;;;;8.30;5.22;;;9.40;1.00;;;;;;6280238;22;20221;-80
2022/02/18 09:48:18;;;;;;;7.65;4.57;;;9.50;1.00;;;;;;6280742;22;20217;-80
2022/02/18 09:50:45;;;;;;;9.13;5.95;;;9.30;1.00;;;;;;6270503;22;20191;-80
2022/02/18 09:53:12;;;;;;;7.43;5.72;;;9.30;1.00;;;;;;6275297;22;20188;-80
2022/02/18 09:55:40;;;;;;;7.03;5.43;;;9.40;1.00;;;;;;6274816;22;20201;-78
2022/02/18 09:58:07;;;;;;;9.48;4.95;;;9.50;1.00;;;;;;6274680;22;20376;-80
2022/02/18 10:00:34;;;;;;;7.80;4.90;;;9.50;1.00;;;;;;6272097;22;20196;-79
2022/02/18 10:03:03;;;;;;;6.17;3.70;;;9.60;1.00;;;;;;6275245;22;20414;-80
2022/02/18 10:05:30;;;;;;;12.30;10.73;;;9.70;1.00;;;;;;6275929;22;20390;-79
2022/02/18 10:08:08;;;;;;;7.57;4.43;;;9.60;1.00;;;;;;6280719;22;20267;-80
2022/02/18 10:10:36;;;;;;;7.27;3.77;;;9.70;1.00;;;;;;6277044;22;20907;-80
2022/02/18 10:13:04;;;;;;;7.07;3.97;;;9.80;1.00;;;;;;6277313;22;20406;-80
2022/02/18 10:15:45;;;;;;;5.75;3.60;;;9.80;1.00;;;;;;6281213;22;20388;-80
2022/02/18 10:18:13;;;;;;;6.47;3.50;;;9.90;1.00;;;;;;6279891;22;20188;-87
2022/02/18 10:20:45;;;;;;;8.50;4.38;;;9.80;1.00;;;;;;6295173;22;21172;-85
2022/02/18 10:23:12;;;;;;;9.50;4.10;;;9.70;1.00;;;;;;6269025;22;20211;-85
2022/02/18 10:25:41;;;;;;;10.07;4.23;;;9.80;1.00;;;;;;6294290;22;20612;-81
2022/02/18 10:28:10;;;;;;;7.70;3.53;;;9.60;1.00;;;;;;6252726;22;20797;-82
2022/02/18 10:30:37;;;;;;;9.67;3.30;;;9.50;1.00;;;;;;6279628;22;20391;-83
2022/02/18 10:33:16;;;;;;;7.23;3.50;;;9.40;1.00;;;;;;6277982;22;20914;-83
2022/02/18 10:35:44;;;;;;;10.85;4.45;;;9.30;1.00;;;;;;6280234;22;20378;-82
2022/02/18 10:38:14;;;;;;;7.00;3.27;;;9.30;1.00;;;;;;6284821;22;20195;-85
2022/02/18 10:40:42;;;;;;;8.57;3.65;;;9.30;1.00;;;;;;6283377;22;20418;-86
2022/02/18 10:43:11;;;;;;;7.50;3.17;;;9.40;1.00;;;;;;6255220;22;20719;-87
2022/02/18 10:45:52;;;;;;;6.40;3.27;;;9.40;1.00;;;;;;6282778;22;20383;-85
2022/02/18 10:48:21;;;;;;;5.73;2.90;;;9.60;1.00;;;;;;6285652;22;20480;-84
2022/02/18 10:51:10;;;;;;;8.30;3.30;;;9.60;1.00;;;;;;6292164;22;20363;-83
2022/02/18 10:53:39;;;;;;;8.18;3.83;;;9.50;1.00;;;;;;6269332;22;20427;-84
2022/02/18 10:56:07;;;;;;;6.17;3.77;;;9.60;1.00;;;;;;6277484;22;20200;-84
2022/02/18 10:58:36;;;;;;;10.27;4.80;;;9.60;1.00;;;;;;6282599;22;20366;-85
2022/02/18 11:01:05;;;;;;;7.10;3.87;;;9.60;1.00;;;;;;6282528;22;20392;-84
2022/02/18 11:03:34;;;;;;;5.55;3.53;;;9.60;1.00;;;;;;6281687;22;20408;-83
2022/02/18 11:06:12;;;;;;;5.67;3.30;;;9.50;1.00;;;;;;6279940;22;20297;-84
2022/02/18 11:08:40;;;;;;;6.73;3.97;;;9.60;1.00;;;;;;6285377;22;20422;-84
2022/02/18 11:11:11;;;;;;;7.13;3.57;;;9.50;1.00;;;;;;6292449;22;20441;-84
2022/02/18 11:13:40;;;;;;;6.20;3.10;;;9.40;1.00;;;;;;6287078;22;20400;-82
2022/02/18 11:16:10;;;;;;;6.95;3.25;;;9.30;1.00;;;;;;6282552;22;20387;-83
2022/02/18 11:18:40;;;;;;;8.00;3.57;;;9.30;1.00;;;;;;6283479;22;20180;-82
2022/02/18 11:21:06;;;;;;;10.77;3.10;;;9.20;1.00;;;;;;6280254;22;20978;-83
2022/02/18 11:23:34;;;;;;;9.02;3.30;;;9.20;1.00;;;;;;6278650;22;20399;-83
2022/02/18 11:26:01;;;;;;;8.38;3.95;;;9.10;1.00;;;;;;6283409;22;20202;-83
2022/02/18 11:28:29;;;;;;;11.83;3.90;;;9.10;1.00;;;;;;6281353;22;20298;-83
2022/02/18 11:31:01;;;;;;;3.97;2.20;;;9.10;1.00;;;;;;6292921;22;20369;-83
2022/02/18 11:33:43;;;;;;;6.47;2.88;;;8.90;1.00;;;;;;6293465;22;20437;-83
2022/02/18 11:36:32;;;;;;;3.65;2.45;;;8.60;1.00;;;;;;6294316;22;20197;-85
2022/02/18 11:39:19;;;;;;;5.63;2.67;;;8.20;1.00;;;;;;6286136;22;20209;-85
2022/02/18 11:41:58;;;;;;;4.68;2.95;;;8.00;1.00;;;;;;6284514;22;20184;-85
2022/02/18 11:44:30;;;;;;;5.45;2.90;;;7.80;1.00;;;;;;6284431;22;20423;-86
2022/02/18 11:47:15;;;;;;;5.80;2.25;;;7.50;1.00;;;;;;6270643;22;20196;-84
2022/02/18 11:49:45;;;;;;;3.78;1.98;;;7.30;1.00;;;;;;6301808;22;20289;-86
2022/02/18 11:52:14;;;;;;;2.95;1.50;;;7.00;1.00;;;;;;6274272;22;20236;-83
2022/02/18 11:54:41;;;;;;;4.82;2.47;;;6.90;1.00;;;;;;6300048;22;20214;-86
2022/02/18 11:57:09;;;;;;;5.85;2.85;;;6.70;1.00;;;;;;6303506;22;20197;-83
2022/02/18 11:59:55;;;;;;;6.40;2.28;;;6.70;1.00;;;;;;6299767;22;20246;-85
2022/02/18 12:02:36;;;;;;;4.00;2.75;;;6.60;1.00;;;;;;6298582;22;20178;-84
2022/02/18 12:05:09;;;;;;;4.28;2.63;;;6.60;1.00;;;;;;6278670;22;20227;-78
2022/02/18 12:07:39;;;;;;;9.13;2.60;;;6.60;1.00;;;;;;6276126;22;20207;-79
2022/02/18 12:10:11;;;;;;;5.30;2.67;;;6.70;1.00;;;;;;6247578;22;20197;-79
2022/02/18 12:12:39;;;;;;;6.93;3.10;;;6.70;1.00;;;;;;6271563;22;20220;-79
2022/02/18 12:15:14;;;;;;;7.05;3.10;;;6.80;1.00;;;;;;6276863;22;20267;-78
2022/02/18 12:17:45;;;;;;;7.85;3.05;;;6.90;1.00;;;;;;6275130;22;21158;-78
2022/02/18 12:20:16;;;;;;;5.55;2.65;;;6.90;1.00;;;;;;6278848;22;20197;-79
2022/02/18 12:22:43;;;;;;;7.78;2.80;;;6.90;1.00;;;;;;6295208;22;20296;-78
2022/02/18 12:25:19;;;;;;;7.25;2.40;;;6.90;1.00;;;;;;6287530;22;20204;-79
2022/02/18 12:27:47;;;;;;;4.95;2.97;;;6.90;1.00;;;;;;6277725;22;20208;-78
2022/02/18 12:30:40;;;;;;;5.90;3.20;;;6.90;1.00;;;;;;6274747;22;20235;-77
2022/02/18 12:33:08;;;;;;;4.15;2.80;;;6.90;1.00;;;;;;6275505;22;20279;-78
2022/02/18 12:35:36;;;;;;;4.15;2.67;;;7.00;1.00;;;;;;6274440;22;20212;-79
2022/02/18 12:38:06;;;;;;;3.83;2.65;;;7.00;1.00;;;;;;6275275;22;20215;-79
2022/02/18 12:40:39;;;;;;;5.78;2.83;;;7.10;1.00;;;;;;6275320;22;20185;-79
2022/02/18 12:43:14;;;;;;;6.75;3.30;;;7.10;1.00;;;;;;6277214;22;20192;-79
2022/02/18 12:45:51;;;;;;;5.07;2.60;;;7.30;1.00;;;;;;6273993;22;20287;-78
2022/02/18 12:48:31;;;;;;;7.05;2.95;;;7.40;1.00;;;;;;6271894;22;20224;-78
2022/02/18 12:51:00;;;;;;;7.13;2.92;;;7.50;1.00;;;;;;6277165;22;20186;-77
2022/02/18 12:53:27;;;;;;;5.57;2.47;;;7.50;1.00;;;;;;6277702;22;20695;-77
2022/02/18 12:55:54;;;;;;;5.00;2.38;;;7.50;1.00;;;;;;6280682;22;20185;-80
2022/02/18 12:58:21;;;;;;;7.93;3.35;;;7.60;1.00;;;;;;6284996;22;20192;-81
2022/02/18 13:00:48;;;;;;;5.38;2.72;;;7.60;1.00;;;;;;6272210;22;20200;-81
2022/02/18 13:03:15;;;;;;;6.68;2.83;;;7.60;1.00;;;;;;6274391;22;20198;-82
2022/02/18 13:05:42;;;;;;;7.65;2.45;;;7.60;1.00;;;;;;6275767;22;20196;-80
2022/02/18 13:08:21;;;;;;;4.85;2.55;;;7.70;1.00;;;;;;6275041;22;20260;-80
2022/02/18 13:10:50;;;;;;;6.28;2.97;;;7.60;1.00;;;;;;6275427;22;20219;-83
2022/02/18 13:13:19;;;;;;;12.50;4.35;;;7.50;1.00;;;;;;6250247;22;20616;-84
2022/02/18 13:15:47;;;;;;;7.35;2.83;;;7.40;1.00;;;;;;6280205;22;20681;-82